Time;durP1;ratioP1;P1;durP2;ratioP2;P2;SDS_P1;SDS_P2;PMS_P1;PMS_P2;Temp;Humidity;BMP_temperature;BMP_pressure;BME280_temperature;BME280_humidity;BME280_pressure;Samples;Min_cycle;Max_cycle;Signal;HPM_P1;HPM_P2
2021/03/12 00:01:05;;;;;;;6.37;1.67;;;;;;;;;;5038792;28;20184;-68
2021/03/12 00:03:32;;;;;;;9.97;2.43;;;;;;;;;;5041521;28;20174;-67
2021/03/12 00:05:59;;;;;;;13.23;3.07;;;;;;;;;;5042741;28;20178;-68
2021/03/12 00:08:27;;;;;;;7.47;2.33;;;;;;;;;;5055986;28;20227;-68
2021/03/12 00:10:52;;;;;;;12.57;2.53;;;;;;;;;;5051303;28;20205;-67
2021/03/12 00:13:19;;;;;;;9.93;2.03;;;;;;;;;;5041795;28;20260;-68
2021/03/12 00:15:45;;;;;;;6.60;3.27;;;;;;;;;;5040018;28;20182;-67
2021/03/12 00:18:10;;;;;;;5.10;2.07;;;;;;;;;;5040766;28;20648;-67
2021/03/12 00:20:37;;;;;;;10.97;2.37;;;;;;;;;;5039264;28;20212;-67
2021/03/12 00:23:03;;;;;;;16.20;2.20;;;;;;;;;;5046903;28;20223;-68
2021/03/12 00:25:34;;;;;;;12.67;2.57;;;;;;;;;;5039257;28;20178;-66
2021/03/12 00:28:00;;;;;;;5.93;2.07;;;;;;;;;;5022376;28;20173;-67
2021/03/12 00:30:25;;;;;;;11.90;2.43;;;;;;;;;;5019837;28;20720;-66
2021/03/12 00:32:50;;;;;;;9.47;2.17;;;;;;;;;;5023334;28;20205;-67
2021/03/12 00:35:15;;;;;;;8.53;2.83;;;;;;;;;;5040305;28;20182;-67
2021/03/12 00:37:40;;;;;;;8.67;2.27;;;;;;;;;;5045903;28;20183;-66
2021/03/12 00:40:08;;;;;;;11.23;2.00;;;;;;;;;;5051427;28;20211;-67
2021/03/12 00:42:33;;;;;;;10.73;2.10;;;;;;;;;;5049461;28;20185;-66
2021/03/12 00:44:58;;;;;;;12.60;3.17;;;;;;;;;;5047976;28;20182;-66
2021/03/12 00:47:24;;;;;;;13.60;2.20;;;;;;;;;;5052275;28;20569;-67
2021/03/12 00:49:49;;;;;;;11.90;2.33;;;;;;;;;;5047522;28;20204;-66
2021/03/12 00:52:14;;;;;;;12.00;1.73;;;;;;;;;;5046451;28;20181;-67
2021/03/12 00:54:39;;;;;;;5.50;1.63;;;;;;;;;;5049497;28;20674;-66
2021/03/12 00:57:05;;;;;;;7.07;1.87;;;;;;;;;;5050124;28;20742;-67
2021/03/12 00:59:30;;;;;;;21.03;3.30;;;;;;;;;;5049109;28;20201;-67
2021/03/12 01:01:55;;;;;;;8.43;1.90;;;;;;;;;;5046280;28;20169;-67
2021/03/12 01:04:20;;;;;;;5.57;1.70;;;;;;;;;;5048142;28;20256;-66
2021/03/12 01:06:45;;;;;;;7.03;1.87;;;;;;;;;;5046982;28;20232;-67
2021/03/12 01:09:10;;;;;;;8.17;2.07;;;;;;;;;;5052172;28;20681;-67
2021/03/12 01:11:35;;;;;;;9.80;2.00;;;;;;;;;;5048323;28;20213;-67
2021/03/12 01:14:01;;;;;;;11.40;2.20;;;;;;;;;;5053316;28;20185;-67
2021/03/12 01:16:26;;;;;;;11.60;2.80;;;;;;;;;;5049911;28;20189;-67
2021/03/12 01:18:51;;;;;;;11.47;3.50;;;;;;;;;;5046745;28;20209;-66
2021/03/12 01:21:16;;;;;;;10.70;2.17;;;;;;;;;;5049683;28;20284;-67
2021/03/12 01:23:41;;;;;;;17.27;2.70;;;;;;;;;;5049046;28;20269;-67
2021/03/12 01:26:07;;;;;;;12.83;4.13;;;;;;;;;;5049737;28;20229;-66
2021/03/12 01:28:32;;;;;;;14.00;2.30;;;;;;;;;;5048808;28;20195;-67
2021/03/12 01:30:57;;;;;;;7.70;2.17;;;;;;;;;;5044191;28;20193;-67
2021/03/12 01:33:22;;;;;;;14.00;4.63;;;;;;;;;;5042742;28;20837;-67
2021/03/12 01:35:47;;;;;;;13.27;3.30;;;;;;;;;;5049658;28;20293;-67
2021/03/12 01:38:13;;;;;;;13.53;3.10;;;;;;;;;;5043428;28;20647;-65
2021/03/12 01:40:41;;;;;;;15.23;3.70;;;;;;;;;;5045621;28;20328;-67
2021/03/12 01:43:06;;;;;;;14.13;3.30;;;;;;;;;;5046768;28;20260;-67
2021/03/12 01:45:42;;;;;;;8.80;2.40;;;;;;;;;;5051838;28;20630;-66
2021/03/12 01:48:11;;;;;;;9.03;2.70;;;;;;;;;;5045209;28;20182;-66
2021/03/12 01:50:37;;;;;;;12.40;2.57;;;;;;;;;;5051131;28;20288;-67
2021/03/12 01:53:05;;;;;;;6.83;2.53;;;;;;;;;;5045625;28;20189;-67
2021/03/12 01:55:32;;;;;;;16.87;2.63;;;;;;;;;;5049862;28;20196;-67
2021/03/12 01:57:58;;;;;;;9.90;3.13;;;;;;;;;;5047319;28;20236;-67
2021/03/12 02:00:23;;;;;;;12.63;3.57;;;;;;;;;;5046015;28;20248;-68
2021/03/12 02:02:48;;;;;;;12.67;2.67;;;;;;;;;;5045501;28;20184;-67
2021/03/12 02:05:14;;;;;;;7.07;2.17;;;;;;;;;;5047248;28;20177;-67
2021/03/12 02:07:39;;;;;;;14.63;4.27;;;;;;;;;;5049506;28;20524;-67
2021/03/12 02:10:06;;;;;;;8.27;2.30;;;;;;;;;;5049257;28;20578;-67
2021/03/12 02:12:31;;;;;;;12.63;3.00;;;;;;;;;;5054390;28;20211;-67
2021/03/12 02:14:59;;;;;;;15.90;3.15;;;;;;;;;;5046733;28;20165;-67
2021/03/12 02:17:27;;;;;;;9.87;2.53;;;;;;;;;;5049543;28;20246;-67
2021/03/12 02:19:52;;;;;;;10.73;2.27;;;;;;;;;;5050456;28;20209;-67
2021/03/12 02:22:18;;;;;;;12.55;3.22;;;;;;;;;;5049812;28;20177;-66
2021/03/12 02:24:48;;;;;;;13.10;3.47;;;;;;;;;;5046135;28;20184;-67
2021/03/12 02:27:14;;;;;;;13.27;2.17;;;;;;;;;;5047285;28;20188;-67
2021/03/12 02:29:41;;;;;;;17.83;3.27;;;;;;;;;;5045208;28;20202;-67
2021/03/12 02:32:06;;;;;;;9.53;2.20;;;;;;;;;;5050253;28;20235;-66
2021/03/12 02:34:34;;;;;;;10.47;2.50;;;;;;;;;;5048143;28;20173;-67
2021/03/12 02:37:00;;;;;;;12.00;2.77;;;;;;;;;;5044048;28;20182;-67
2021/03/12 02:39:27;;;;;;;9.47;2.80;;;;;;;;;;5050019;28;20209;-66
2021/03/12 02:41:53;;;;;;;13.57;2.67;;;;;;;;;;5043878;28;20636;-68
2021/03/12 02:44:19;;;;;;;9.77;3.10;;;;;;;;;;5048442;28;20209;-67
2021/03/12 02:46:46;;;;;;;11.77;3.27;;;;;;;;;;5050049;28;20220;-67
2021/03/12 02:49:13;;;;;;;13.07;2.50;;;;;;;;;;5049618;28;20193;-67
2021/03/12 02:51:38;;;;;;;8.93;2.33;;;;;;;;;;5047584;28;20638;-67
2021/03/12 02:54:04;;;;;;;10.23;2.80;;;;;;;;;;5043674;28;20221;-67
2021/03/12 02:56:29;;;;;;;8.73;2.30;;;;;;;;;;5046866;28;20188;-67
2021/03/12 02:58:54;;;;;;;11.83;2.67;;;;;;;;;;5049465;28;20694;-66
2021/03/12 03:01:20;;;;;;;11.53;2.63;;;;;;;;;;5040885;28;20183;-67
2021/03/12 03:03:46;;;;;;;9.33;2.43;;;;;;;;;;5042018;28;20561;-67
2021/03/12 03:06:11;;;;;;;9.70;2.10;;;;;;;;;;5035750;28;20338;-67
2021/03/12 03:08:38;;;;;;;17.60;2.67;;;;;;;;;;5045646;28;20229;-65
2021/03/12 03:11:04;;;;;;;12.20;2.03;;;;;;;;;;5038424;28;20209;-67
2021/03/12 03:13:33;;;;;;;10.20;2.67;;;;;;;;;;5046092;28;20624;-65
2021/03/12 03:15:59;;;;;;;12.33;2.13;;;;;;;;;;5041310;28;20181;-67
2021/03/12 03:18:25;;;;;;;11.60;2.73;;;;;;;;;;5047436;28;20190;-67
2021/03/12 03:20:51;;;;;;;12.00;4.10;;;;;;;;;;5048506;28;20201;-66
2021/03/12 03:23:16;;;;;;;12.13;2.37;;;;;;;;;;5043674;28;20182;-66
2021/03/12 03:25:41;;;;;;;8.50;1.97;;;;;;;;;;5046393;28;20182;-67
2021/03/12 03:28:07;;;;;;;14.70;2.73;;;;;;;;;;5033017;28;20221;-66
2021/03/12 03:30:32;;;;;;;10.93;3.30;;;;;;;;;;5044827;28;21303;-66
2021/03/12 03:32:57;;;;;;;12.80;3.50;;;;;;;;;;5045675;28;20197;-66
2021/03/12 03:35:22;;;;;;;13.20;3.03;;;;;;;;;;5051306;28;20200;-67
2021/03/12 03:37:47;;;;;;;11.47;2.50;;;;;;;;;;5039451;28;20214;-67
2021/03/12 03:40:13;;;;;;;12.47;2.50;;;;;;;;;;5049396;28;20213;-67
2021/03/12 03:42:39;;;;;;;8.40;2.20;;;;;;;;;;5027684;28;20170;-67
2021/03/12 03:45:05;;;;;;;11.97;3.27;;;;;;;;;;5046135;28;20197;-67
2021/03/12 03:47:31;;;;;;;14.80;3.77;;;;;;;;;;5047281;28;20208;-67
2021/03/12 03:49:57;;;;;;;10.00;3.00;;;;;;;;;;5048726;28;20622;-67
2021/03/12 03:52:23;;;;;;;11.03;2.53;;;;;;;;;;5048683;28;20178;-67
2021/03/12 03:54:49;;;;;;;16.87;2.43;;;;;;;;;;5045797;28;20186;-66
2021/03/12 03:57:15;;;;;;;10.60;2.70;;;;;;;;;;5048350;28;20186;-67
2021/03/12 03:59:41;;;;;;;11.37;2.07;;;;;;;;;;5048278;28;20241;-66
2021/03/12 04:02:08;;;;;;;13.00;2.30;;;;;;;;;;5050035;28;20170;-67
2021/03/12 04:04:34;;;;;;;13.23;2.50;;;;;;;;;;5048062;28;20182;-67
2021/03/12 04:07:00;;;;;;;14.33;3.20;;;;;;;;;;5051408;28;20188;-67
2021/03/12 04:09:25;;;;;;;7.77;2.43;;;;;;;;;;5048258;28;20721;-65
2021/03/12 04:11:50;;;;;;;10.87;2.60;;;;;;;;;;5047754;28;20459;-66
2021/03/12 04:14:16;;;;;;;7.73;2.10;;;;;;;;;;5042940;28;20697;-66
2021/03/12 04:16:41;;;;;;;7.40;2.03;;;;;;;;;;5037807;28;20190;-67
2021/03/12 04:19:07;;;;;;;12.50;1.93;;;;;;;;;;5049728;28;20233;-67
2021/03/12 04:21:33;;;;;;;7.70;1.90;;;;;;;;;;5049760;28;20734;-67
2021/03/12 04:23:59;;;;;;;13.77;3.27;;;;;;;;;;5054394;28;20639;-66
2021/03/12 04:26:24;;;;;;;10.50;2.10;;;;;;;;;;5046667;28;20180;-67
2021/03/12 04:28:49;;;;;;;12.03;3.40;;;;;;;;;;5052790;28;20185;-66
2021/03/12 04:31:15;;;;;;;9.73;3.10;;;;;;;;;;5051682;28;20716;-66
2021/03/12 04:33:40;;;;;;;12.17;2.53;;;;;;;;;;5053204;28;20182;-67
2021/03/12 04:36:06;;;;;;;18.30;3.33;;;;;;;;;;5054502;28;20271;-67
2021/03/12 04:38:32;;;;;;;9.87;3.17;;;;;;;;;;5052516;28;20728;-67
2021/03/12 04:40:57;;;;;;;11.10;2.37;;;;;;;;;;5046836;28;20202;-67
2021/03/12 04:43:23;;;;;;;9.43;2.30;;;;;;;;;;5052067;28;20185;-67
2021/03/12 04:45:48;;;;;;;5.60;1.70;;;;;;;;;;5050790;28;20170;-67
2021/03/12 04:48:14;;;;;;;14.13;2.27;;;;;;;;;;5048783;28;20623;-67
2021/03/12 04:50:39;;;;;;;12.47;2.37;;;;;;;;;;5049222;28;20205;-67
2021/03/12 04:53:05;;;;;;;10.53;3.63;;;;;;;;;;5051907;28;20209;-67
2021/03/12 04:55:30;;;;;;;15.50;2.30;;;;;;;;;;5047741;28;20672;-67
2021/03/12 04:57:55;;;;;;;9.73;2.10;;;;;;;;;;5051854;28;20188;-67
2021/03/12 05:00:21;;;;;;;9.57;2.47;;;;;;;;;;5048329;28;20244;-67
2021/03/12 05:02:46;;;;;;;14.57;3.33;;;;;;;;;;5051371;28;20174;-67
2021/03/12 05:05:12;;;;;;;15.83;2.90;;;;;;;;;;5050026;28;20189;-67
2021/03/12 05:07:38;;;;;;;9.10;2.37;;;;;;;;;;5050269;28;20178;-67
2021/03/12 05:10:05;;;;;;;10.77;2.70;;;;;;;;;;5050386;28;20589;-66
2021/03/12 05:12:30;;;;;;;11.07;2.47;;;;;;;;;;5049865;28;20596;-67
2021/03/12 05:14:56;;;;;;;14.10;2.27;;;;;;;;;;5047307;28;20186;-67
2021/03/12 05:17:22;;;;;;;12.73;2.40;;;;;;;;;;5046353;28;20660;-67
2021/03/12 05:19:47;;;;;;;8.87;1.63;;;;;;;;;;5047677;28;20217;-67
2021/03/12 05:22:12;;;;;;;13.47;2.60;;;;;;;;;;5048388;28;20192;-67
2021/03/12 05:24:38;;;;;;;10.37;2.80;;;;;;;;;;5049129;28;20259;-66
2021/03/12 05:27:03;;;;;;;10.73;3.47;;;;;;;;;;5050647;28;20651;-67
2021/03/12 05:29:28;;;;;;;17.10;2.33;;;;;;;;;;5050254;28;20231;-67
2021/03/12 05:31:53;;;;;;;5.53;2.03;;;;;;;;;;5051980;28;20273;-67
2021/03/12 05:34:18;;;;;;;11.03;2.47;;;;;;;;;;5052053;28;20614;-67
2021/03/12 05:36:44;;;;;;;10.07;2.40;;;;;;;;;;5052279;28;20186;-67
2021/03/12 05:39:09;;;;;;;9.27;2.77;;;;;;;;;;5055318;28;20221;-67
2021/03/12 05:41:36;;;;;;;8.07;2.50;;;;;;;;;;5044412;28;20220;-67
2021/03/12 05:44:02;;;;;;;11.20;2.03;;;;;;;;;;5048435;28;20177;-67
2021/03/12 05:46:27;;;;;;;8.47;3.57;;;;;;;;;;5051235;28;20208;-67
2021/03/12 05:48:53;;;;;;;11.47;2.10;;;;;;;;;;5047224;28;20178;-67
2021/03/12 05:51:18;;;;;;;9.67;2.70;;;;;;;;;;5048746;28;20228;-67
2021/03/12 05:53:46;;;;;;;9.43;2.30;;;;;;;;;;5047781;28;20264;-67
2021/03/12 05:56:11;;;;;;;10.93;2.13;;;;;;;;;;5050858;28;20716;-67
2021/03/12 05:58:37;;;;;;;12.40;2.27;;;;;;;;;;5050527;28;20193;-67
2021/03/12 06:01:02;;;;;;;10.80;2.43;;;;;;;;;;5046801;28;20181;-67
2021/03/12 06:03:27;;;;;;;14.57;3.43;;;;;;;;;;5039552;28;20553;-67
2021/03/12 06:05:53;;;;;;;12.00;3.27;;;;;;;;;;5046961;28;20201;-66
2021/03/12 06:08:18;;;;;;;11.67;3.47;;;;;;;;;;5048202;28;20227;-67
2021/03/12 06:10:43;;;;;;;8.03;2.67;;;;;;;;;;5049351;28;20220;-67
2021/03/12 06:13:08;;;;;;;10.80;3.00;;;;;;;;;;5047500;28;20194;-67
2021/03/12 06:15:35;;;;;;;10.73;2.43;;;;;;;;;;5042468;28;20201;-68
2021/03/12 06:18:11;;;;;;;13.10;3.13;;;;;;;;;;5043277;28;20335;-68
2021/03/12 06:20:37;;;;;;;9.83;2.80;;;;;;;;;;5045601;28;20211;-67
2021/03/12 06:23:02;;;;;;;17.77;3.03;;;;;;;;;;5050185;28;20161;-68
2021/03/12 06:25:29;;;;;;;10.20;2.67;;;;;;;;;;5048359;28;20635;-67
2021/03/12 06:27:56;;;;;;;12.53;2.53;;;;;;;;;;5055091;28;20174;-67
2021/03/12 06:30:22;;;;;;;9.67;2.37;;;;;;;;;;5046030;28;20243;-67
2021/03/12 06:32:52;;;;;;;12.70;2.87;;;;;;;;;;5048695;28;20205;-68
2021/03/12 06:35:18;;;;;;;12.00;2.77;;;;;;;;;;5048459;28;20193;-66
2021/03/12 06:37:47;;;;;;;11.97;2.70;;;;;;;;;;5045274;28;20194;-66
2021/03/12 06:40:25;;;;;;;11.50;3.20;;;;;;;;;;5041711;28;20210;-66
2021/03/12 06:43:09;;;;;;;11.47;2.87;;;;;;;;;;5042421;28;20183;-66
2021/03/12 06:45:40;;;;;;;15.90;3.00;;;;;;;;;;5048140;28;20254;-67
2021/03/12 06:48:16;;;;;;;18.93;3.40;;;;;;;;;;5048364;28;20178;-67
2021/03/12 06:50:45;;;;;;;12.97;2.60;;;;;;;;;;5047078;28;20201;-67
2021/03/12 06:53:34;;;;;;;19.50;4.37;;;;;;;;;;5049389;28;20445;-67
2021/03/12 06:56:00;;;;;;;11.60;2.50;;;;;;;;;;5043784;28;20674;-68
2021/03/12 06:58:26;;;;;;;10.90;3.30;;;;;;;;;;5051414;28;20200;-68
2021/03/12 07:00:52;;;;;;;13.67;4.27;;;;;;;;;;5046220;28;20189;-67
2021/03/12 07:03:23;;;;;;;12.40;3.63;;;;;;;;;;5045560;28;20177;-68
2021/03/12 07:05:54;;;;;;;10.70;3.10;;;;;;;;;;5045232;28;20519;-68
2021/03/12 07:08:31;;;;;;;16.70;2.90;;;;;;;;;;5045924;28;20308;-68
2021/03/12 07:10:57;;;;;;;12.83;3.47;;;;;;;;;;5043559;28;20215;-68
2021/03/12 07:13:22;;;;;;;10.73;3.53;;;;;;;;;;5046714;28;20257;-68
2021/03/12 07:15:49;;;;;;;15.73;3.20;;;;;;;;;;5038332;28;20174;-68
2021/03/12 07:18:14;;;;;;;16.90;3.70;;;;;;;;;;5036650;28;20268;-68
2021/03/12 07:20:39;;;;;;;12.83;2.93;;;;;;;;;;5036993;28;20891;-67
2021/03/12 07:23:05;;;;;;;10.47;3.37;;;;;;;;;;5037517;28;20170;-68
2021/03/12 07:25:30;;;;;;;15.20;3.77;;;;;;;;;;5037968;28;20220;-68
2021/03/12 07:27:56;;;;;;;10.67;3.30;;;;;;;;;;5036762;28;20216;-68
2021/03/12 07:30:21;;;;;;;16.50;3.47;;;;;;;;;;5039138;28;20209;-69
2021/03/12 07:32:52;;;;;;;17.07;3.30;;;;;;;;;;5042558;28;20194;-68
2021/03/12 07:35:17;;;;;;;17.93;3.67;;;;;;;;;;5039070;28;20272;-69
2021/03/12 07:37:43;;;;;;;17.40;3.20;;;;;;;;;;5050417;28;20331;-67
2021/03/12 07:40:10;;;;;;;15.50;4.13;;;;;;;;;;5051160;28;20347;-66
2021/03/12 07:42:35;;;;;;;18.20;3.13;;;;;;;;;;5041441;28;20257;-67
2021/03/12 07:45:02;;;;;;;10.30;3.27;;;;;;;;;;5038789;28;20308;-67
2021/03/12 07:47:27;;;;;;;17.70;4.07;;;;;;;;;;5035904;28;20181;-67
2021/03/12 07:49:53;;;;;;;10.50;3.20;;;;;;;;;;5046018;28;20675;-67
2021/03/12 07:52:38;;;;;;;16.13;3.63;;;;;;;;;;5039552;28;20346;-68
2021/03/12 07:55:03;;;;;;;10.67;2.77;;;;;;;;;;5040757;28;20932;-67
2021/03/12 07:57:31;;;;;;;18.87;4.20;;;;;;;;;;5040305;28;20196;-67
2021/03/12 07:59:57;;;;;;;12.27;4.17;;;;;;;;;;5040822;28;20258;-67
2021/03/12 08:02:22;;;;;;;16.33;3.40;;;;;;;;;;5041038;28;20261;-67
2021/03/12 08:04:48;;;;;;;20.50;3.67;;;;;;;;;;5047178;28;20173;-66
2021/03/12 08:07:16;;;;;;;13.77;3.80;;;;;;;;;;5051099;28;20196;-67
2021/03/12 08:09:42;;;;;;;16.20;3.63;;;;;;;;;;5052857;28;20228;-68
2021/03/12 08:12:08;;;;;;;15.10;3.53;;;;;;;;;;5046697;28;20209;-67
2021/03/12 08:14:33;;;;;;;20.37;3.00;;;;;;;;;;5046411;28;20178;-67
2021/03/12 08:17:00;;;;;;;19.23;4.00;;;;;;;;;;5039041;28;20287;-66
2021/03/12 08:19:29;;;;;;;15.73;3.63;;;;;;;;;;5039374;28;20284;-67
2021/03/12 08:21:54;;;;;;;16.90;4.33;;;;;;;;;;5044832;28;20178;-67
2021/03/12 08:24:38;;;;;;;21.90;5.67;;;;;;;;;;5048944;28;20189;-67
2021/03/12 08:27:03;;;;;;;17.10;3.37;;;;;;;;;;5058716;28;20181;-66
2021/03/12 08:29:38;;;;;;;16.53;4.50;;;;;;;;;;5051698;28;20432;-67
2021/03/12 08:32:22;;;;;;;15.47;3.43;;;;;;;;;;5051615;28;20193;-67
2021/03/12 08:34:47;;;;;;;17.97;3.97;;;;;;;;;;5049672;28;20287;-67
2021/03/12 08:37:25;;;;;;;14.33;3.63;;;;;;;;;;5053522;28;20642;-68
2021/03/12 08:40:10;;;;;;;13.03;4.90;;;;;;;;;;5051777;28;20579;-67
2021/03/12 08:42:54;;;;;;;14.63;3.33;;;;;;;;;;5052025;28;20268;-67
2021/03/12 08:45:34;;;;;;;19.60;4.60;;;;;;;;;;5032206;28;20177;-67
2021/03/12 08:48:03;;;;;;;14.80;4.10;;;;;;;;;;5027184;28;20181;-67
2021/03/12 08:50:29;;;;;;;16.77;4.70;;;;;;;;;;5043742;28;20197;-68
2021/03/12 08:52:54;;;;;;;13.53;3.97;;;;;;;;;;5043659;28;20182;-68
2021/03/12 08:55:19;;;;;;;20.90;4.67;;;;;;;;;;5047640;28;20280;-67
2021/03/12 08:57:44;;;;;;;18.60;3.70;;;;;;;;;;5044778;28;20185;-68
2021/03/12 09:00:10;;;;;;;15.73;3.30;;;;;;;;;;5025576;28;20232;-66
2021/03/12 09:02:35;;;;;;;15.30;3.67;;;;;;;;;;5024533;28;20853;-68
2021/03/12 09:05:00;;;;;;;23.33;5.07;;;;;;;;;;5046295;28;20174;-68
2021/03/12 09:07:25;;;;;;;13.13;4.97;;;;;;;;;;5028382;28;20186;-68
2021/03/12 09:09:50;;;;;;;22.30;4.60;;;;;;;;;;5026978;28;20204;-67
2021/03/12 09:12:16;;;;;;;12.97;4.83;;;;;;;;;;5026916;28;20514;-67
2021/03/12 09:14:41;;;;;;;17.57;5.17;;;;;;;;;;5033387;28;20185;-67
2021/03/12 09:17:06;;;;;;;15.47;4.40;;;;;;;;;;5028762;28;20808;-67
2021/03/12 09:19:32;;;;;;;17.63;4.00;;;;;;;;;;5025270;28;20214;-66
2021/03/12 09:21:57;;;;;;;21.00;5.30;;;;;;;;;;5025204;28;20178;-66
2021/03/12 09:24:22;;;;;;;14.20;4.90;;;;;;;;;;5037683;28;20178;-68
2021/03/12 09:26:47;;;;;;;18.00;4.50;;;;;;;;;;5031784;28;20190;-67
2021/03/12 09:29:13;;;;;;;18.23;5.33;;;;;;;;;;5028131;28;20237;-67
2021/03/12 09:31:39;;;;;;;15.37;5.47;;;;;;;;;;5026764;28;20213;-68
2021/03/12 09:34:05;;;;;;;18.07;4.80;;;;;;;;;;5024249;28;20186;-68
2021/03/12 09:36:35;;;;;;;20.23;5.67;;;;;;;;;;5030283;28;20915;-68
2021/03/12 09:39:03;;;;;;;19.63;5.23;;;;;;;;;;5027051;28;20300;-68
2021/03/12 09:41:29;;;;;;;12.93;4.57;;;;;;;;;;5032600;28;20224;-67
2021/03/12 09:43:57;;;;;;;15.43;4.17;;;;;;;;;;5035076;28;20201;-68
2021/03/12 09:46:49;;;;;;;14.87;4.33;;;;;;;;;;5028995;28;20189;-68
2021/03/12 09:49:17;;;;;;;12.50;3.90;;;;;;;;;;5044189;28;20230;-68
2021/03/12 09:51:44;;;;;;;16.03;5.13;;;;;;;;;;5031387;28;20197;-68
2021/03/12 09:54:10;;;;;;;11.97;4.43;;;;;;;;;;5023496;28;20272;-68
2021/03/12 09:56:38;;;;;;;18.00;4.67;;;;;;;;;;5031088;28;20273;-67
2021/03/12 09:59:03;;;;;;;12.07;4.43;;;;;;;;;;5027492;28;20244;-67
2021/03/12 10:01:35;;;;;;;14.77;3.40;;;;;;;;;;5033339;28;20656;-67
2021/03/12 10:04:00;;;;;;;10.07;3.83;;;;;;;;;;5022339;28;20240;-67
2021/03/12 10:06:25;;;;;;;17.65;5.28;;;;;;;;;;5028351;28;20194;-68
2021/03/12 10:09:00;;;;;;;17.03;4.63;;;;;;;;;;5022651;28;20178;-68
2021/03/12 10:11:36;;;;;;;15.20;4.87;;;;;;;;;;5028910;28;20184;-67
2021/03/12 10:14:21;;;;;;;12.90;4.93;;;;;;;;;;5028839;28;20265;-68
2021/03/12 10:17:03;;;;;;;18.47;7.17;;;;;;;;;;5024770;28;20182;-67
2021/03/12 10:19:38;;;;;;;14.67;6.20;;;;;;;;;;5024826;28;20259;-68
2021/03/12 10:22:10;;;;;;;15.63;5.73;;;;;;;;;;5025405;28;20174;-66
2021/03/12 10:24:36;;;;;;;13.23;4.83;;;;;;;;;;5025623;28;20185;-68
2021/03/12 10:27:01;;;;;;;13.87;4.60;;;;;;;;;;5029841;28;20179;-68
2021/03/12 10:29:26;;;;;;;15.87;4.23;;;;;;;;;;5040261;28;20679;-66
2021/03/12 10:31:51;;;;;;;15.10;4.67;;;;;;;;;;5027791;28;20201;-66
2021/03/12 10:34:16;;;;;;;13.60;3.77;;;;;;;;;;5023901;28;20235;-68
2021/03/12 10:36:42;;;;;;;12.40;5.43;;;;;;;;;;5024085;28;20775;-67
2021/03/12 10:39:07;;;;;;;13.13;4.40;;;;;;;;;;5036291;28;20209;-68
2021/03/12 10:41:32;;;;;;;21.87;5.60;;;;;;;;;;5030683;28;21040;-68
2021/03/12 10:44:02;;;;;;;15.93;4.07;;;;;;;;;;5024347;28;20175;-67
2021/03/12 10:46:27;;;;;;;13.40;4.23;;;;;;;;;;5026726;28;20762;-68
2021/03/12 10:48:52;;;;;;;9.87;3.50;;;;;;;;;;5022977;28;20467;-69
2021/03/12 10:51:18;;;;;;;10.60;3.70;;;;;;;;;;5033396;28;22449;-68
2021/03/12 10:53:47;;;;;;;10.47;4.23;;;;;;;;;;5048240;28;20248;-68
2021/03/12 10:56:13;;;;;;;14.77;4.87;;;;;;;;;;5029257;28;20221;-68
2021/03/12 10:58:38;;;;;;;13.90;4.40;;;;;;;;;;5027085;28;20178;-68
2021/03/12 11:01:08;;;;;;;16.47;4.57;;;;;;;;;;5040835;28;20177;-68
2021/03/12 11:03:33;;;;;;;15.87;4.23;;;;;;;;;;5035466;28;20659;-68
2021/03/12 11:05:59;;;;;;;15.40;5.07;;;;;;;;;;5041174;28;20170;-68
2021/03/12 11:08:26;;;;;;;11.73;3.97;;;;;;;;;;5047227;28;20662;-68
2021/03/12 11:10:51;;;;;;;13.30;4.30;;;;;;;;;;5024762;28;20891;-68
2021/03/12 11:13:16;;;;;;;9.80;3.80;;;;;;;;;;5025999;28;20690;-68
2021/03/12 11:15:41;;;;;;;10.80;4.10;;;;;;;;;;5036024;28;20358;-67
2021/03/12 11:18:06;;;;;;;13.37;4.20;;;;;;;;;;5027604;28;20587;-67
2021/03/12 11:20:31;;;;;;;13.23;4.13;;;;;;;;;;5036702;28;20924;-67
2021/03/12 11:22:57;;;;;;;10.67;4.07;;;;;;;;;;5032660;28;20173;-68
2021/03/12 11:25:22;;;;;;;12.33;4.60;;;;;;;;;;5048957;28;20297;-67
2021/03/12 11:27:47;;;;;;;11.40;3.93;;;;;;;;;;5030685;28;20259;-68
2021/03/12 11:30:14;;;;;;;14.57;4.57;;;;;;;;;;5042742;28;20599;-67
2021/03/12 11:32:40;;;;;;;11.57;4.87;;;;;;;;;;5028024;28;20213;-67
2021/03/12 11:35:05;;;;;;;9.57;4.20;;;;;;;;;;5030821;28;20651;-66
2021/03/12 11:37:31;;;;;;;14.57;6.07;;;;;;;;;;5028944;28;20190;-67
2021/03/12 11:39:56;;;;;;;9.23;3.87;;;;;;;;;;5029290;28;20717;-67
2021/03/12 11:42:21;;;;;;;14.90;4.57;;;;;;;;;;5027857;28;20178;-67
2021/03/12 11:44:46;;;;;;;15.87;4.17;;;;;;;;;;5028653;28;20433;-67
2021/03/12 11:47:12;;;;;;;13.03;4.37;;;;;;;;;;5028807;28;20186;-66
2021/03/12 11:49:37;;;;;;;11.77;4.33;;;;;;;;;;5028872;28;20280;-66
2021/03/12 11:52:02;;;;;;;11.47;4.23;;;;;;;;;;5047893;28;20181;-68
2021/03/12 11:54:28;;;;;;;15.80;4.53;;;;;;;;;;5054778;28;20182;-67
2021/03/12 11:56:54;;;;;;;8.87;3.57;;;;;;;;;;5032358;28;20186;-68
2021/03/12 11:59:19;;;;;;;10.00;3.50;;;;;;;;;;5029282;28;22525;-67
2021/03/12 12:01:45;;;;;;;11.70;4.00;;;;;;;;;;5030725;28;20928;-67
2021/03/12 12:04:10;;;;;;;12.97;3.50;;;;;;;;;;5035066;28;20181;-68
2021/03/12 12:06:35;;;;;;;6.57;3.57;;;;;;;;;;5032635;28;20248;-66
2021/03/12 12:09:01;;;;;;;9.77;4.87;;;;;;;;;;5027688;28;20230;-67
2021/03/12 12:11:27;;;;;;;11.03;3.90;;;;;;;;;;5030325;28;20276;-68
2021/03/12 12:13:52;;;;;;;9.47;3.27;;;;;;;;;;5034730;28;20231;-67
2021/03/12 12:16:17;;;;;;;8.57;3.30;;;;;;;;;;5040088;28;20221;-67
2021/03/12 12:18:42;;;;;;;5.70;2.93;;;;;;;;;;5034075;28;20220;-68
2021/03/12 12:21:07;;;;;;;9.53;3.43;;;;;;;;;;5027475;28;20797;-66
2021/03/12 12:23:33;;;;;;;7.37;3.57;;;;;;;;;;5027222;28;20180;-67
2021/03/12 12:25:58;;;;;;;7.93;3.20;;;;;;;;;;5043265;28;20170;-67
2021/03/12 12:28:23;;;;;;;7.70;3.10;;;;;;;;;;5054010;28;20602;-67
2021/03/12 12:30:48;;;;;;;7.40;3.00;;;;;;;;;;5040026;28;20233;-66
2021/03/12 12:33:14;;;;;;;9.93;3.20;;;;;;;;;;5026444;28;20935;-66
2021/03/12 12:35:39;;;;;;;8.30;2.67;;;;;;;;;;5028602;28;20173;-67
2021/03/12 12:38:06;;;;;;;10.23;2.80;;;;;;;;;;5030810;28;20197;-68
2021/03/12 12:40:31;;;;;;;11.10;3.93;;;;;;;;;;5024954;28;20228;-67
2021/03/12 12:42:56;;;;;;;14.77;4.33;;;;;;;;;;5027607;28;20191;-66
2021/03/12 12:45:21;;;;;;;12.70;4.00;;;;;;;;;;5031491;28;20212;-67
2021/03/12 12:47:47;;;;;;;17.33;4.10;;;;;;;;;;5040988;28;20188;-67
2021/03/12 12:50:12;;;;;;;10.07;3.40;;;;;;;;;;5033293;28;20298;-68
2021/03/12 12:52:37;;;;;;;12.33;3.63;;;;;;;;;;5047612;28;20182;-68
2021/03/12 12:55:04;;;;;;;10.27;4.43;;;;;;;;;;5052500;28;22385;-67
2021/03/12 12:57:29;;;;;;;13.77;4.23;;;;;;;;;;5031847;28;20258;-67
2021/03/12 12:59:54;;;;;;;6.60;2.27;;;;;;;;;;5030672;28;20698;-68
2021/03/12 13:02:19;;;;;;;5.93;2.30;;;;;;;;;;5033317;28;20650;-67
2021/03/12 13:04:45;;;;;;;3.83;2.10;;;;;;;;;;5029606;28;20192;-66
2021/03/12 13:07:10;;;;;;;9.83;2.77;;;;;;;;;;5027750;28;20671;-67
2021/03/12 13:09:35;;;;;;;7.37;2.67;;;;;;;;;;5041181;28;20251;-68
2021/03/12 13:12:01;;;;;;;11.27;4.37;;;;;;;;;;5051367;28;20542;-67
2021/03/12 13:14:26;;;;;;;20.37;6.20;;;;;;;;;;5045956;28;20185;-67
2021/03/12 13:16:52;;;;;;;14.80;4.67;;;;;;;;;;5030531;28;20806;-67
2021/03/12 13:19:17;;;;;;;15.47;3.93;;;;;;;;;;5025597;28;20210;-66
2021/03/12 13:21:43;;;;;;;13.33;4.70;;;;;;;;;;5037063;28;20189;-67
2021/03/12 13:24:08;;;;;;;12.57;4.80;;;;;;;;;;5050558;28;20181;-67
2021/03/12 13:26:33;;;;;;;14.47;3.60;;;;;;;;;;5043433;28;20606;-68
2021/03/12 13:28:58;;;;;;;8.53;2.70;;;;;;;;;;5041719;28;20209;-67
2021/03/12 13:31:24;;;;;;;3.93;2.00;;;;;;;;;;5025132;28;20192;-66
2021/03/12 13:33:50;;;;;;;6.63;2.03;;;;;;;;;;5025168;28;20186;-67
2021/03/12 13:36:15;;;;;;;8.03;2.47;;;;;;;;;;5039318;28;20185;-67
2021/03/12 13:38:40;;;;;;;10.13;2.90;;;;;;;;;;5053777;28;20558;-68
2021/03/12 13:41:05;;;;;;;8.77;2.50;;;;;;;;;;5035600;28;20679;-66
2021/03/12 13:43:31;;;;;;;5.13;2.60;;;;;;;;;;5025588;28;20209;-68
2021/03/12 13:45:57;;;;;;;5.13;2.13;;;;;;;;;;5024855;28;20177;-65
2021/03/12 13:48:22;;;;;;;5.00;1.50;;;;;;;;;;5049847;28;20173;-67
2021/03/12 13:50:48;;;;;;;4.53;1.60;;;;;;;;;;5037568;28;20197;-67
2021/03/12 13:53:13;;;;;;;2.50;1.17;;;;;;;;;;5024240;28;20558;-67
2021/03/12 13:55:38;;;;;;;3.20;1.60;;;;;;;;;;5029395;28;20206;-67
2021/03/12 13:58:07;;;;;;;7.93;2.23;;;;;;;;;;5024051;28;20185;-66
2021/03/12 14:00:32;;;;;;;6.67;2.17;;;;;;;;;;5038959;28;20233;-67
2021/03/12 14:02:58;;;;;;;4.77;2.03;;;;;;;;;;5022196;28;20656;-66
2021/03/12 14:05:23;;;;;;;5.43;1.98;;;;;;;;;;5031040;28;20701;-67
2021/03/12 14:07:48;;;;;;;5.07;2.77;;;;;;;;;;5028565;28;20234;-66
2021/03/12 14:10:13;;;;;;;7.83;2.97;;;;;;;;;;5032543;28;20216;-66
2021/03/12 14:12:39;;;;;;;5.90;2.47;;;;;;;;;;5027666;28;20645;-67
2021/03/12 14:15:04;;;;;;;6.50;2.63;;;;;;;;;;5049388;28;20216;-67
2021/03/12 14:17:30;;;;;;;6.00;2.43;;;;;;;;;;5031144;28;20181;-67
2021/03/12 14:19:55;;;;;;;9.33;2.93;;;;;;;;;;5040185;28;20924;-67
2021/03/12 14:22:20;;;;;;;6.77;2.83;;;;;;;;;;5031097;28;20853;-68
2021/03/12 14:24:45;;;;;;;5.37;2.50;;;;;;;;;;5035104;28;20244;-68
2021/03/12 14:27:10;;;;;;;3.60;2.17;;;;;;;;;;5049768;28;20182;-67
2021/03/12 14:29:35;;;;;;;6.17;1.87;;;;;;;;;;5029132;28;20209;-67